Portada
METAR-TAF:

METAR-TAF

Aeropuertos :

Aeropuerto de Verona-Villafranca

Verona, Italia

latitud: 45-23N, longitud: 010-52E, altitud: 67 m

Observación

El informe se hizo hace 39 minutos, a las 05:20 UTC
Viento 4 kt del norte
Temperatura 18°C
Humedad 94%
Presión 1006 hPa
Visibilidad 10 km o más
Escasas nubes a una altura de 4500 ft
Cielo nuboso a una altura de 6000 ft

METAR: LIPX 070520Z 01004KT 9999 FEW045 BKN060 18/17 Q1006

Hora: 07:59 (05:59 UTC)

Pronóstico

El informe se hizo hace 59 minutos, a las 05:00 UTC
Pronóstico válido del 07 a las 06 UTC al 07 a las 15 UTC
Viento 10 kt del este
Visibilidad: 9000 m
Cielo nuboso a una altura de 3000 ft
Temporalmente
del 07 a las 08 UTC al 07 a las 15 UTC
tormenta, lluvia

TAF: LIPX 070500Z 0706/0715 08010KT 9000 BKN030 TEMPO 0708/0715 TSRA

Observaciones y pronósticos meteorológicos de más de 4000 aeropuertos (mensajes METAR y TAF).

Los puntos amarillos y rojos representan las estaciones disponibles.

Ponga el ratón en el punto deseado para ver el nombre de la estación.

Haga clic para ver las observaciones y los pronósticos meteorológicos.

Para cambiar el mapa : haga clic en los botones verdes con una cruz de color negro para hacer un zoom, en el botón verde con un guión para alejar o en las flechas verdes para mapas adyacentes.


METAR-TAF: